sensor_id;sensor_type;location;lat;lon;timestamp;pressure;altitude;pressure_sealevel;temperature;humidity
45523;BME280;31254;51.680;5.394;2024-01-27T00:00:41;103469.50;;;7.53;90.86
45523;BME280;31254;51.680;5.394;2024-01-27T00:03:08;103321.75;;;6.73;90.71
45523;BME280;31254;51.680;5.394;2024-01-27T00:05:34;103467.81;;;7.50;91.25
45523;BME280;31254;51.680;5.394;2024-01-27T00:08:01;103238.78;;;6.25;90.72
45523;BME280;31254;51.680;5.394;2024-01-27T00:10:28;103481.66;;;7.64;90.77
45523;BME280;31254;51.680;5.394;2024-01-27T00:12:54;103444.56;;;7.43;91.24
45523;BME280;31254;51.680;5.394;2024-01-27T00:15:21;103384.72;;;7.03;90.68
45523;BME280;31254;51.680;5.394;2024-01-27T00:17:48;103349.31;;;6.84;90.77
45523;BME280;31254;51.680;5.394;2024-01-27T00:20:14;103426.00;;;7.32;90.84
45523;BME280;31254;51.680;5.394;2024-01-27T00:22:41;103446.66;;;7.36;90.57
45523;BME280;31254;51.680;5.394;2024-01-27T00:25:08;103427.91;;;7.30;90.83
45523;BME280;31254;51.680;5.394;2024-01-27T00:27:34;103448.31;;;7.40;90.53
45523;BME280;31254;51.680;5.394;2024-01-27T00:30:01;103510.47;;;7.68;90.48
45523;BME280;31254;51.680;5.394;2024-01-27T00:32:28;103555.19;;;7.82;90.76
45523;BME280;31254;51.680;5.394;2024-01-27T00:34:54;103548.00;;;7.81;90.93
45523;BME280;31254;51.680;5.394;2024-01-27T00:37:21;103444.81;;;7.16;90.88
45523;BME280;31254;51.680;5.394;2024-01-27T00:39:47;103567.28;;;7.75;90.55
45523;BME280;31254;51.680;5.394;2024-01-27T00:42:14;103515.56;;;7.56;90.63
45523;BME280;31254;51.680;5.394;2024-01-27T00:44:40;103453.97;;;7.13;91.40
45523;BME280;31254;51.680;5.394;2024-01-27T00:47:07;103491.28;;;7.30;90.87
45523;BME280;31254;51.680;5.394;2024-01-27T00:49:33;103545.13;;;7.63;91.25
45523;BME280;31254;51.680;5.394;2024-01-27T00:52:00;103452.41;;;7.08;91.21
45523;BME280;31254;51.680;5.394;2024-01-27T00:54:27;103447.16;;;7.03;91.21
45523;BME280;31254;51.680;5.394;2024-01-27T00:56:53;103549.38;;;7.48;91.37
45523;BME280;31254;51.680;5.394;2024-01-27T00:59:20;103450.66;;;6.83;91.84
45523;BME280;31254;51.680;5.394;2024-01-27T01:01:47;103302.06;;;6.01;91.24
45523;BME280;31254;51.680;5.394;2024-01-27T01:04:13;103399.19;;;6.59;91.10
45523;BME280;31254;51.680;5.394;2024-01-27T01:06:40;103305.84;;;5.96;91.59
45523;BME280;31254;51.680;5.394;2024-01-27T01:09:07;103374.91;;;6.33;91.88
45523;BME280;31254;51.680;5.394;2024-01-27T01:11:33;103513.69;;;7.13;92.18
45523;BME280;31254;51.680;5.394;2024-01-27T01:14:04;103430.72;;;6.62;91.66
45523;BME280;31254;51.680;5.394;2024-01-27T01:16:31;103327.38;;;6.00;91.98
45523;BME280;31254;51.680;5.394;2024-01-27T01:18:57;103551.84;;;7.32;91.83
45523;BME280;31254;51.680;5.394;2024-01-27T01:21:24;103503.25;;;7.03;91.81
45523;BME280;31254;51.680;5.394;2024-01-27T01:23:50;103468.03;;;6.79;91.99
45523;BME280;31254;51.680;5.394;2024-01-27T01:26:17;103532.75;;;7.12;91.82
45523;BME280;31254;51.680;5.394;2024-01-27T01:28:44;103449.69;;;6.62;91.68
45523;BME280;31254;51.680;5.394;2024-01-27T01:31:10;103451.28;;;6.68;91.81
45523;BME280;31254;51.680;5.394;2024-01-27T01:33:37;103357.66;;;6.12;91.72
45523;BME280;31254;51.680;5.394;2024-01-27T01:36:04;103414.94;;;6.50;91.84
45523;BME280;31254;51.680;5.394;2024-01-27T01:38:30;103563.63;;;7.31;91.51
45523;BME280;31254;51.680;5.394;2024-01-27T01:40:57;103551.63;;;7.15;91.99
45523;BME280;31254;51.680;5.394;2024-01-27T01:43:23;103499.34;;;6.88;91.12
45523;BME280;31254;51.680;5.394;2024-01-27T01:45:50;103453.03;;;6.69;91.46
45523;BME280;31254;51.680;5.394;2024-01-27T01:48:20;103552.78;;;7.31;91.67
45523;BME280;31254;51.680;5.394;2024-01-27T01:50:47;103419.34;;;6.52;91.23
45523;BME280;31254;51.680;5.394;2024-01-27T01:53:14;103433.25;;;6.67;90.79
45523;BME280;31254;51.680;5.394;2024-01-27T01:55:41;103440.22;;;6.74;90.80
45523;BME280;31254;51.680;5.394;2024-01-27T01:58:08;103509.25;;;7.11;90.68
45523;BME280;31254;51.680;5.394;2024-01-27T02:00:34;103566.22;;;7.35;90.84
45523;BME280;31254;51.680;5.394;2024-01-27T02:03:01;103311.00;;;5.80;90.74
45523;BME280;31254;51.680;5.394;2024-01-27T02:05:28;103567.31;;;7.30;90.95
45523;BME280;31254;51.680;5.394;2024-01-27T02:07:55;103509.53;;;7.05;90.25
45523;BME280;31254;51.680;5.394;2024-01-27T02:10:25;103451.06;;;6.74;90.33
45523;BME280;31254;51.680;5.394;2024-01-27T02:12:52;103364.44;;;6.23;90.15
45523;BME280;31254;51.680;5.394;2024-01-27T02:15:18;103498.16;;;6.95;90.16
45523;BME280;31254;51.680;5.394;2024-01-27T02:17:45;103504.22;;;7.02;90.02
45523;BME280;31254;51.680;5.394;2024-01-27T02:20:12;103474.75;;;6.69;90.05
45523;BME280;31254;51.680;5.394;2024-01-27T02:22:38;103517.59;;;7.06;89.81
45523;BME280;31254;51.680;5.394;2024-01-27T02:25:05;103261.31;;;5.57;89.68
45523;BME280;31254;51.680;5.394;2024-01-27T02:27:31;103516.88;;;7.01;89.84
45523;BME280;31254;51.680;5.394;2024-01-27T02:29:58;103590.72;;;7.33;90.14
45523;BME280;31254;51.680;5.394;2024-01-27T02:32:25;103131.72;;;4.75;89.77
45523;BME280;31254;51.680;5.394;2024-01-27T02:34:51;103497.63;;;6.85;90.00
45523;BME280;31254;51.680;5.394;2024-01-27T02:37:18;103523.47;;;6.95;90.12
45523;BME280;31254;51.680;5.394;2024-01-27T02:39:45;103458.75;;;6.63;89.74
45523;BME280;31254;51.680;5.394;2024-01-27T02:42:12;103584.59;;;7.28;89.85
45523;BME280;31254;51.680;5.394;2024-01-27T02:44:39;103586.44;;;7.27;89.73
45523;BME280;31254;51.680;5.394;2024-01-27T02:47:05;103592.00;;;7.24;89.88
45523;BME280;31254;51.680;5.394;2024-01-27T02:49:32;103395.44;;;6.16;89.99
45523;BME280;31254;51.680;5.394;2024-01-27T02:51:58;103491.81;;;6.72;89.86
45523;BME280;31254;51.680;5.394;2024-01-27T02:54:25;103569.66;;;7.18;89.94
45523;BME280;31254;51.680;5.394;2024-01-27T02:56:53;103502.53;;;6.75;89.89
45523;BME280;31254;51.680;5.394;2024-01-27T02:59:20;103277.41;;;5.37;89.94
45523;BME280;31254;51.680;5.394;2024-01-27T03:01:46;103464.69;;;6.49;89.96
45523;BME280;31254;51.680;5.394;2024-01-27T03:04:13;103498.19;;;6.71;90.07
45523;BME280;31254;51.680;5.394;2024-01-27T03:06:40;103514.22;;;6.77;89.63
45523;BME280;31254;51.680;5.394;2024-01-27T03:09:06;103374.03;;;5.85;89.76
45523;BME280;31254;51.680;5.394;2024-01-27T03:11:33;103276.34;;;5.41;89.78
45523;BME280;31254;51.680;5.394;2024-01-27T03:13:59;103581.84;;;7.06;90.11
45523;BME280;31254;51.680;5.394;2024-01-27T03:16:26;103346.50;;;5.72;89.69
45523;BME280;31254;51.680;5.394;2024-01-27T03:18:53;103575.72;;;7.01;90.08
45523;BME280;31254;51.680;5.394;2024-01-27T03:21:22;103368.28;;;5.69;90.15
45523;BME280;31254;51.680;5.394;2024-01-27T03:23:49;103582.47;;;6.90;90.73
45523;BME280;31254;51.680;5.394;2024-01-27T03:26:15;103385.25;;;5.74;89.93
45523;BME280;31254;51.680;5.394;2024-01-27T03:28:42;103423.91;;;6.04;89.93
45523;BME280;31254;51.680;5.394;2024-01-27T03:31:09;103587.84;;;6.92;90.10
45523;BME280;31254;51.680;5.394;2024-01-27T03:33:35;103190.06;;;4.57;89.83
45523;BME280;31254;51.680;5.394;2024-01-27T03:36:02;103577.44;;;6.80;90.90
45523;BME280;31254;51.680;5.394;2024-01-27T03:38:29;103517.47;;;6.40;90.62
45523;BME280;31254;51.680;5.394;2024-01-27T03:40:55;103424.53;;;5.86;90.60
45523;BME280;31254;51.680;5.394;2024-01-27T03:43:22;103478.72;;;6.13;90.86
45523;BME280;31254;51.680;5.394;2024-01-27T03:45:49;103477.03;;;6.09;90.80
45523;BME280;31254;51.680;5.394;2024-01-27T03:48:15;103462.00;;;6.00;90.80
45523;BME280;31254;51.680;5.394;2024-01-27T03:50:42;103436.59;;;5.77;90.94
45523;BME280;31254;51.680;5.394;2024-01-27T03:53:08;103495.84;;;6.13;90.89
45523;BME280;31254;51.680;5.394;2024-01-27T03:55:35;103494.81;;;6.17;90.55
45523;BME280;31254;51.680;5.394;2024-01-27T03:58:02;103518.94;;;6.23;90.78
45523;BME280;31254;51.680;5.394;2024-01-27T04:00:28;103406.03;;;5.48;90.94
45523;BME280;31254;51.680;5.394;2024-01-27T04:02:59;103462.25;;;5.67;90.83
45523;BME280;31254;51.680;5.394;2024-01-27T04:05:27;103528.00;;;6.24;90.69
45523;BME280;31254;51.680;5.394;2024-01-27T04:07:54;103326.31;;;5.05;90.70
45523;BME280;31254;51.680;5.394;2024-01-27T04:10:22;103529.88;;;6.22;91.06
45523;BME280;31254;51.680;5.394;2024-01-27T04:12:49;103586.47;;;6.56;90.50
45523;BME280;31254;51.680;5.394;2024-01-27T04:15:15;103438.56;;;5.74;90.74
45523;BME280;31254;51.680;5.394;2024-01-27T04:17:42;103515.09;;;6.06;90.48
45523;BME280;31254;51.680;5.394;2024-01-27T04:20:09;103586.03;;;6.44;90.86
45523;BME280;31254;51.680;5.394;2024-01-27T04:22:36;103592.66;;;6.60;90.60
45523;BME280;31254;51.680;5.394;2024-01-27T04:25:03;103451.19;;;5.73;90.33
45523;BME280;31254;51.680;5.394;2024-01-27T04:27:30;103515.84;;;6.11;90.08
45523;BME280;31254;51.680;5.394;2024-01-27T04:29:56;103572.53;;;6.42;90.29
45523;BME280;31254;51.680;5.394;2024-01-27T04:32:23;103330.50;;;5.16;89.64
45523;BME280;31254;51.680;5.394;2024-01-27T04:34:50;103450.91;;;5.81;90.16
45523;BME280;31254;51.680;5.394;2024-01-27T04:37:16;103583.56;;;6.61;90.12
45523;BME280;31254;51.680;5.394;2024-01-27T04:39:43;103072.03;;;3.53;89.31
45523;BME280;31254;51.680;5.394;2024-01-27T04:42:10;103493.78;;;5.95;89.80
45523;BME280;31254;51.680;5.394;2024-01-27T04:44:40;103567.03;;;6.44;89.78
45523;BME280;31254;51.680;5.394;2024-01-27T04:47:06;103597.59;;;6.49;89.94
45523;BME280;31254;51.680;5.394;2024-01-27T04:49:33;103357.56;;;5.16;89.24
45523;BME280;31254;51.680;5.394;2024-01-27T04:52:00;103402.41;;;5.49;89.49
45523;BME280;31254;51.680;5.394;2024-01-27T04:54:27;103440.34;;;5.73;89.31
45523;BME280;31254;51.680;5.394;2024-01-27T04:56:53;103604.09;;;6.68;89.36
45523;BME280;31254;51.680;5.394;2024-01-27T04:59:20;103614.94;;;6.68;89.22
45523;BME280;31254;51.680;5.394;2024-01-27T05:01:46;103523.59;;;6.20;89.13
45523;BME280;31254;51.680;5.394;2024-01-27T05:04:13;103480.88;;;6.03;88.80
45523;BME280;31254;51.680;5.394;2024-01-27T05:06:44;102608.97;;;0.83;88.50
45523;BME280;31254;51.680;5.394;2024-01-27T05:09:12;103506.53;;;6.18;89.07
45523;BME280;31254;51.680;5.394;2024-01-27T05:11:38;103382.88;;;5.40;89.14
45523;BME280;31254;51.680;5.394;2024-01-27T05:14:05;103613.38;;;6.63;89.02
45523;BME280;31254;51.680;5.394;2024-01-27T05:16:32;103571.75;;;6.38;89.22
45523;BME280;31254;51.680;5.394;2024-01-27T05:19:00;103524.06;;;6.08;88.86
45523;BME280;31254;51.680;5.394;2024-01-27T05:21:26;103597.13;;;6.61;89.18
45523;BME280;31254;51.680;5.394;2024-01-27T05:23:53;103601.72;;;6.59;88.93
45523;BME280;31254;51.680;5.394;2024-01-27T05:26:21;103612.56;;;6.59;88.79
45523;BME280;31254;51.680;5.394;2024-01-27T05:28:48;103592.75;;;6.57;89.02
45523;BME280;31254;51.680;5.394;2024-01-27T05:31:14;103548.84;;;6.22;89.18
45523;BME280;31254;51.680;5.394;2024-01-27T05:33:42;103524.41;;;5.98;89.40
45523;BME280;31254;51.680;5.394;2024-01-27T05:36:09;103594.94;;;6.47;89.41
45523;BME280;31254;51.680;5.394;2024-01-27T05:38:36;103358.34;;;5.19;89.20
45523;BME280;31254;51.680;5.394;2024-01-27T05:41:03;103577.84;;;6.45;89.27
45523;BME280;31254;51.680;5.394;2024-01-27T05:43:30;103385.84;;;5.32;88.97
45523;BME280;31254;51.680;5.394;2024-01-27T05:45:57;103515.84;;;6.11;88.70
45523;BME280;31254;51.680;5.394;2024-01-27T05:48:24;103509.72;;;6.04;89.09
45523;BME280;31254;51.680;5.394;2024-01-27T05:50:55;103571.81;;;6.37;89.28
45523;BME280;31254;51.680;5.394;2024-01-27T05:53:22;103543.75;;;6.13;89.34
45523;BME280;31254;51.680;5.394;2024-01-27T05:55:49;103233.16;;;4.35;89.07
45523;BME280;31254;51.680;5.394;2024-01-27T05:58:16;103586.50;;;6.30;89.22
45523;BME280;31254;51.680;5.394;2024-01-27T06:00:43;103472.59;;;5.56;89.56
45523;BME280;31254;51.680;5.394;2024-01-27T06:03:13;103447.41;;;5.52;89.89
45523;BME280;31254;51.680;5.394;2024-01-27T06:05:41;103579.66;;;6.19;89.75
45523;BME280;31254;51.680;5.394;2024-01-27T06:08:08;103423.44;;;5.41;89.42
45523;BME280;31254;51.680;5.394;2024-01-27T06:10:35;103502.28;;;5.84;89.43
45523;BME280;31254;51.680;5.394;2024-01-27T06:13:05;103514.81;;;5.88;89.42
45523;BME280;31254;51.680;5.394;2024-01-27T06:15:31;103405.00;;;5.26;89.64
45523;BME280;31254;51.680;5.394;2024-01-27T06:17:58;103393.28;;;4.99;89.42
45523;BME280;31254;51.680;5.394;2024-01-27T06:20:26;103404.66;;;5.10;89.20
45523;BME280;31254;51.680;5.394;2024-01-27T06:22:52;103522.19;;;5.83;89.62
45523;BME280;31254;51.680;5.394;2024-01-27T06:25:20;103458.59;;;5.43;89.89
45523;BME280;31254;51.680;5.394;2024-01-27T06:27:47;103497.63;;;5.62;89.71
45523;BME280;31254;51.680;5.394;2024-01-27T06:30:14;103571.03;;;6.08;89.65
45523;BME280;31254;51.680;5.394;2024-01-27T06:32:42;103517.88;;;5.77;89.63
45523;BME280;31254;51.680;5.394;2024-01-27T06:35:09;103576.50;;;6.07;89.56
45523;BME280;31254;51.680;5.394;2024-01-27T06:37:36;103590.97;;;6.06;89.21
45523;BME280;31254;51.680;5.394;2024-01-27T06:40:02;103453.78;;;5.24;89.37
45523;BME280;31254;51.680;5.394;2024-01-27T06:42:29;103535.34;;;5.68;89.34
45523;BME280;31254;51.680;5.394;2024-01-27T06:44:57;103027.47;;;2.83;89.22
45523;BME280;31254;51.680;5.394;2024-01-27T06:47:24;103423.63;;;5.08;89.19
45523;BME280;31254;51.680;5.394;2024-01-27T06:49:50;103508.19;;;5.43;89.33
45523;BME280;31254;51.680;5.394;2024-01-27T06:52:17;103247.56;;;4.08;89.37
45523;BME280;31254;51.680;5.394;2024-01-27T06:54:43;103468.00;;;5.31;89.44
45523;BME280;31254;51.680;5.394;2024-01-27T06:57:20;103599.16;;;6.04;89.42
45523;BME280;31254;51.680;5.394;2024-01-27T06:59:51;103602.81;;;6.03;89.35
45523;BME280;31254;51.680;5.394;2024-01-27T07:02:23;103614.53;;;6.03;89.13
45523;BME280;31254;51.680;5.394;2024-01-27T07:04:50;103242.03;;;3.84;88.85
45523;BME280;31254;51.680;5.394;2024-01-27T07:07:19;103626.25;;;6.04;89.59
45523;BME280;31254;51.680;5.394;2024-01-27T07:09:48;103104.13;;;2.74;88.65
45523;BME280;31254;51.680;5.394;2024-01-27T07:12:15;103618.25;;;6.01;89.18
45523;BME280;31254;51.680;5.394;2024-01-27T07:14:41;103431.56;;;4.88;89.04
45523;BME280;31254;51.680;5.394;2024-01-27T07:17:08;103550.38;;;5.50;89.03
45523;BME280;31254;51.680;5.394;2024-01-27T07:19:35;103325.28;;;4.29;88.77
45523;BME280;31254;51.680;5.394;2024-01-27T07:22:01;103529.72;;;5.48;89.02
45523;BME280;31254;51.680;5.394;2024-01-27T07:24:30;103539.47;;;5.52;89.07
45523;BME280;31254;51.680;5.394;2024-01-27T07:26:57;103667.91;;;6.01;88.83
45523;BME280;31254;51.680;5.394;2024-01-27T07:29:24;103563.06;;;5.48;88.63
45523;BME280;31254;51.680;5.394;2024-01-27T07:31:51;103494.34;;;5.26;88.44
45523;BME280;31254;51.680;5.394;2024-01-27T07:34:18;103501.72;;;5.21;88.70
45523;BME280;31254;51.680;5.394;2024-01-27T07:36:45;103636.28;;;6.02;88.58
45523;BME280;31254;51.680;5.394;2024-01-27T07:39:11;103547.66;;;5.50;88.36
45523;BME280;31254;51.680;5.394;2024-01-27T07:41:38;103637.06;;;6.06;88.83
45523;BME280;31254;51.680;5.394;2024-01-27T07:44:13;103633.63;;;6.00;88.16
45523;BME280;31254;51.680;5.394;2024-01-27T07:46:40;103638.25;;;5.97;88.62
45523;BME280;31254;51.680;5.394;2024-01-27T07:49:08;103637.28;;;5.99;88.48
45523;BME280;31254;51.680;5.394;2024-01-27T07:51:35;103648.13;;;5.99;88.51
45523;BME280;31254;51.680;5.394;2024-01-27T07:54:02;103559.69;;;5.42;88.40
45523;BME280;31254;51.680;5.394;2024-01-27T07:56:29;103592.78;;;5.52;88.66
45523;BME280;31254;51.680;5.394;2024-01-27T07:58:55;103647.34;;;5.94;88.53
45523;BME280;31254;51.680;5.394;2024-01-27T08:01:22;103589.75;;;5.61;88.98
45523;BME280;31254;51.680;5.394;2024-01-27T08:03:48;103566.06;;;5.39;88.92
45523;BME280;31254;51.680;5.394;2024-01-27T08:06:17;103644.72;;;5.91;88.57
45523;BME280;31254;51.680;5.394;2024-01-27T08:08:46;103642.09;;;5.90;88.99
45523;BME280;31254;51.680;5.394;2024-01-27T08:11:14;103640.38;;;5.87;89.17
45523;BME280;31254;51.680;5.394;2024-01-27T08:13:44;103451.00;;;4.71;88.68
45523;BME280;31254;51.680;5.394;2024-01-27T08:16:11;103490.38;;;4.81;88.84
45523;BME280;31254;51.680;5.394;2024-01-27T08:18:42;103596.19;;;5.57;88.52
45523;BME280;31254;51.680;5.394;2024-01-27T08:21:11;103175.13;;;3.04;88.40
45523;BME280;31254;51.680;5.394;2024-01-27T08:23:38;103550.16;;;5.30;89.06
45523;BME280;31254;51.680;5.394;2024-01-27T08:26:05;103530.13;;;5.07;89.04
45523;BME280;31254;51.680;5.394;2024-01-27T08:28:32;103480.44;;;4.82;89.42
45523;BME280;31254;51.680;5.394;2024-01-27T08:30:58;103658.88;;;5.73;89.57
45523;BME280;31254;51.680;5.394;2024-01-27T08:33:26;103552.31;;;5.19;89.55
45523;BME280;31254;51.680;5.394;2024-01-27T08:35:53;103370.06;;;4.08;89.21
45523;BME280;31254;51.680;5.394;2024-01-27T08:38:20;103247.91;;;3.39;89.23
45523;BME280;31254;51.680;5.394;2024-01-27T08:40:46;103485.00;;;4.80;89.71
45523;BME280;31254;51.680;5.394;2024-01-27T08:43:13;103455.91;;;4.58;89.75
45523;BME280;31254;51.680;5.394;2024-01-27T08:45:40;103539.13;;;5.08;89.80
45523;BME280;31254;51.680;5.394;2024-01-27T08:48:07;103651.09;;;5.62;90.13
45523;BME280;31254;51.680;5.394;2024-01-27T08:50:34;103627.31;;;5.43;90.18
45523;BME280;31254;51.680;5.394;2024-01-27T08:53:01;103555.50;;;5.03;89.66
45523;BME280;31254;51.680;5.394;2024-01-27T08:55:28;103527.00;;;4.91;89.68
45523;BME280;31254;51.680;5.394;2024-01-27T08:57:59;103661.00;;;5.63;90.22
45523;BME280;31254;51.680;5.394;2024-01-27T09:00:25;103662.78;;;5.64;90.13
45523;BME280;31254;51.680;5.394;2024-01-27T09:02:52;103463.19;;;4.56;90.23
45523;BME280;31254;51.680;5.394;2024-01-27T09:05:19;103420.50;;;4.37;90.03
45523;BME280;31254;51.680;5.394;2024-01-27T09:07:46;103625.13;;;5.56;90.10
45523;BME280;31254;51.680;5.394;2024-01-27T09:10:13;103636.00;;;5.55;90.19
45523;BME280;31254;51.680;5.394;2024-01-27T09:12:42;103662.28;;;5.79;90.03
45523;BME280;31254;51.680;5.394;2024-01-27T09:15:09;103621.69;;;5.51;90.48
45523;BME280;31254;51.680;5.394;2024-01-27T09:17:36;103673.94;;;5.81;91.11
45523;BME280;31254;51.680;5.394;2024-01-27T09:20:03;103572.78;;;5.27;91.23
45523;BME280;31254;51.680;5.394;2024-01-27T09:22:30;103582.78;;;5.25;92.61
45523;BME280;31254;51.680;5.394;2024-01-27T09:24:57;103619.69;;;5.56;92.77
45523;BME280;31254;51.680;5.394;2024-01-27T09:27:24;103585.78;;;5.44;92.94
45523;BME280;31254;51.680;5.394;2024-01-27T09:29:51;103446.91;;;4.57;93.08
45523;BME280;31254;51.680;5.394;2024-01-27T09:32:17;103088.34;;;2.27;91.89
45523;BME280;31254;51.680;5.394;2024-01-27T09:34:44;103691.16;;;6.09;92.23
45523;BME280;31254;51.680;5.394;2024-01-27T09:37:11;103498.63;;;5.05;91.78
45523;BME280;31254;51.680;5.394;2024-01-27T09:39:38;103693.56;;;6.18;91.36
45523;BME280;31254;51.680;5.394;2024-01-27T09:42:06;103610.22;;;5.70;91.62
45523;BME280;31254;51.680;5.394;2024-01-27T09:44:34;103342.00;;;4.12;90.41
45523;BME280;31254;51.680;5.394;2024-01-27T09:47:02;103390.09;;;4.59;90.54
45523;BME280;31254;51.680;5.394;2024-01-27T09:49:30;103693.78;;;6.38;90.23
45523;BME280;31254;51.680;5.394;2024-01-27T09:51:58;103667.34;;;6.18;90.30
45523;BME280;31254;51.680;5.394;2024-01-27T09:54:25;103523.81;;;5.35;90.56
45523;BME280;31254;51.680;5.394;2024-01-27T09:56:52;103646.97;;;6.07;90.51
45523;BME280;31254;51.680;5.394;2024-01-27T09:59:20;103599.25;;;5.74;90.14
45523;BME280;31254;51.680;5.394;2024-01-27T10:01:48;103570.59;;;5.67;89.96
45523;BME280;31254;51.680;5.394;2024-01-27T10:04:15;103411.25;;;4.73;90.01
45523;BME280;31254;51.680;5.394;2024-01-27T10:06:42;103630.84;;;6.02;89.88
45523;BME280;31254;51.680;5.394;2024-01-27T10:09:09;103673.16;;;6.33;89.88
45523;BME280;31254;51.680;5.394;2024-01-27T10:11:39;103564.75;;;5.79;89.46
45523;BME280;31254;51.680;5.394;2024-01-27T10:14:08;103708.91;;;6.71;89.73
45523;BME280;31254;51.680;5.394;2024-01-27T10:16:45;103720.50;;;6.76;89.51
45523;BME280;31254;51.680;5.394;2024-01-27T10:19:19;103725.69;;;6.82;89.46
45523;BME280;31254;51.680;5.394;2024-01-27T10:21:48;103729.22;;;6.84;89.19
45523;BME280;31254;51.680;5.394;2024-01-27T10:24:14;103468.47;;;5.44;88.97
45523;BME280;31254;51.680;5.394;2024-01-27T10:26:41;103716.16;;;6.95;88.80
45523;BME280;31254;51.680;5.394;2024-01-27T10:29:08;103575.13;;;6.20;89.82
45523;BME280;31254;51.680;5.394;2024-01-27T10:31:36;103702.47;;;6.99;89.15
45523;BME280;31254;51.680;5.394;2024-01-27T10:34:03;103265.97;;;4.51;88.89
45523;BME280;31254;51.680;5.394;2024-01-27T10:36:43;103663.19;;;6.85;88.81
45523;BME280;31254;51.680;5.394;2024-01-27T10:39:22;103419.88;;;5.39;88.06
45523;BME280;31254;51.680;5.394;2024-01-27T10:41:51;103691.50;;;7.02;86.76
45523;BME280;31254;51.680;5.394;2024-01-27T10:44:19;103587.78;;;6.45;85.25
45523;BME280;31254;51.680;5.394;2024-01-27T10:46:47;103476.81;;;5.90;84.07
45523;BME280;31254;51.680;5.394;2024-01-27T10:49:18;103680.88;;;6.95;83.54
45523;BME280;31254;51.680;5.394;2024-01-27T10:51:53;103723.03;;;7.29;82.01
45523;BME280;31254;51.680;5.394;2024-01-27T10:54:25;103317.66;;;4.95;82.11
45523;BME280;31254;51.680;5.394;2024-01-27T10:56:55;103708.31;;;7.35;81.59
45523;BME280;31254;51.680;5.394;2024-01-27T10:59:22;103499.88;;;6.27;80.96
45523;BME280;31254;51.680;5.394;2024-01-27T11:01:51;103702.06;;;7.57;80.70
45523;BME280;31254;51.680;5.394;2024-01-27T11:04:20;103484.50;;;6.27;80.10
45523;BME280;31254;51.680;5.394;2024-01-27T11:06:47;103416.81;;;6.00;79.18
45523;BME280;31254;51.680;5.394;2024-01-27T11:09:14;103697.63;;;7.78;78.98
45523;BME280;31254;51.680;5.394;2024-01-27T11:11:42;103676.81;;;7.77;78.37
45523;BME280;31254;51.680;5.394;2024-01-27T11:14:09;103691.34;;;8.20;77.92
45523;BME280;31254;51.680;5.394;2024-01-27T11:16:37;103458.19;;;6.99;76.97
45523;BME280;31254;51.680;5.394;2024-01-27T11:19:13;103648.28;;;8.09;76.49
45523;BME280;31254;51.680;5.394;2024-01-27T11:21:40;103574.03;;;7.86;75.03
45523;BME280;31254;51.680;5.394;2024-01-27T11:24:17;103510.47;;;9.62;68.78
45523;BME280;31254;51.680;5.394;2024-01-27T11:26:44;103531.34;;;13.22;56.20
45523;BME280;31254;51.680;5.394;2024-01-27T11:29:11;103610.28;;;15.65;49.80
45523;BME280;31254;51.680;5.394;2024-01-27T11:31:48;103597.63;;;16.69;46.77
45523;BME280;31254;51.680;5.394;2024-01-27T11:34:17;103644.72;;;13.06;55.20
45523;BME280;31254;51.680;5.394;2024-01-27T11:36:47;103720.97;;;11.77;61.31
45523;BME280;31254;51.680;5.394;2024-01-27T11:39:28;103646.44;;;10.92;65.50
45523;BME280;31254;51.680;5.394;2024-01-27T11:42:05;103636.28;;;10.60;68.21
45523;BME280;31254;51.680;5.394;2024-01-27T11:44:36;103672.22;;;10.53;70.35
45523;BME280;31254;51.680;5.394;2024-01-27T11:47:03;103384.19;;;8.74;71.50
45523;BME280;31254;51.680;5.394;2024-01-27T11:49:30;103601.34;;;9.80;72.12
45523;BME280;31254;51.680;5.394;2024-01-27T11:51:56;103491.03;;;9.15;73.31
45523;BME280;31254;51.680;5.394;2024-01-27T11:54:23;103600.94;;;9.70;73.57
45523;BME280;31254;51.680;5.394;2024-01-27T11:56:50;103443.41;;;8.88;74.99
45523;BME280;31254;51.680;5.394;2024-01-27T11:59:17;103653.91;;;10.01;75.48
45523;BME280;31254;51.680;5.394;2024-01-27T12:01:44;103562.13;;;9.28;71.76
45523;BME280;31254;51.680;5.394;2024-01-27T12:04:11;103380.00;;;8.29;71.85
45523;BME280;31254;51.680;5.394;2024-01-27T12:06:40;103652.78;;;9.87;71.50
45523;BME280;31254;51.680;5.394;2024-01-27T12:09:07;103566.94;;;9.60;72.30
45523;BME280;31254;51.680;5.394;2024-01-27T12:11:39;103640.88;;;10.07;69.69
45523;BME280;31254;51.680;5.394;2024-01-27T12:14:08;103602.91;;;10.03;68.72
45523;BME280;31254;51.680;5.394;2024-01-27T12:16:35;103561.94;;;10.04;67.41
45523;BME280;31254;51.680;5.394;2024-01-27T12:19:02;103523.44;;;9.93;67.00
45523;BME280;31254;51.680;5.394;2024-01-27T12:21:29;103639.19;;;10.57;66.65
45523;BME280;31254;51.680;5.394;2024-01-27T12:23:56;103641.03;;;10.57;66.71
45523;BME280;31254;51.680;5.394;2024-01-27T12:26:28;103173.91;;;7.80;66.02
45523;BME280;31254;51.680;5.394;2024-01-27T12:28:55;103625.97;;;10.32;66.26
45523;BME280;31254;51.680;5.394;2024-01-27T12:31:25;103647.41;;;10.40;66.89
45523;BME280;31254;51.680;5.394;2024-01-27T12:33:55;103591.09;;;10.02;66.40
45523;BME280;31254;51.680;5.394;2024-01-27T12:36:23;103599.69;;;9.95;66.34
45523;BME280;31254;51.680;5.394;2024-01-27T12:38:58;103639.66;;;10.13;66.43
45523;BME280;31254;51.680;5.394;2024-01-27T12:41:26;103619.75;;;9.94;65.96
45523;BME280;31254;51.680;5.394;2024-01-27T12:43:54;103641.00;;;9.87;66.36
45523;BME280;31254;51.680;5.394;2024-01-27T12:46:21;103473.63;;;8.82;66.18
45523;BME280;31254;51.680;5.394;2024-01-27T12:48:47;103660.31;;;9.63;67.49
45523;BME280;31254;51.680;5.394;2024-01-27T12:51:14;103625.72;;;9.46;67.68
45523;BME280;31254;51.680;5.394;2024-01-27T12:53:42;103642.88;;;9.48;68.09
45523;BME280;31254;51.680;5.394;2024-01-27T12:56:15;103644.16;;;9.41;68.03
45523;BME280;31254;51.680;5.394;2024-01-27T12:58:42;103513.56;;;8.62;68.10
45523;BME280;31254;51.680;5.394;2024-01-27T13:01:09;103639.50;;;9.24;69.07